Time;durP1;ratioP1;P1;durP2;ratioP2;P2;SDS_P1;SDS_P2;PMS_P1;PMS_P2;Temp;Humidity;BMP_temperature;BMP_pressure;BME280_temperature;BME280_humidity;BME280_pressure;Samples;Min_cycle;Max_cycle;Signal;HPM_P1;HPM_P2
2022/07/18 00:00:22;;;;;;;15.80;9.48;;;;;;;18.63;71.08;101097.83;1753991;82;21136;-58
2022/07/18 00:02:51;;;;;;;16.45;10.85;;;;;;;18.66;70.86;101111.78;1753883;82;21069;-59
2022/07/18 00:05:19;;;;;;;17.07;10.08;;;;;;;18.66;70.78;101100.27;1753848;82;21567;-59
2022/07/18 00:07:48;;;;;;;9.33;6.10;;;;;;;18.68;70.66;101099.22;1754042;82;21132;-59
2022/07/18 00:10:18;;;;;;;10.68;6.40;;;;;;;18.71;70.48;101107.48;1753933;82;21144;-59
2022/07/18 00:12:47;;;;;;;9.55;5.42;;;;;;;18.69;70.29;101102.25;1753890;82;21049;-60
2022/07/18 00:15:16;;;;;;;8.78;4.60;;;;;;;18.67;70.17;101105.50;1754012;82;21140;-59
2022/07/18 00:17:44;;;;;;;7.47;4.70;;;;;;;18.65;70.08;101102.58;1753789;82;21049;-59
2022/07/18 00:20:13;;;;;;;5.97;4.75;;;;;;;18.64;69.96;101101.70;1753996;82;21327;-59
2022/07/18 00:22:43;;;;;;;9.65;5.35;;;;;;;18.61;69.87;101096.59;1753893;82;21049;-59
2022/07/18 00:25:11;;;;;;;8.20;4.78;;;;;;;18.62;70.12;101100.10;1753946;82;21207;-58
2022/07/18 00:27:40;;;;;;;9.13;5.47;;;;;;;18.62;69.94;101100.10;1753881;82;21065;-58
2022/07/18 00:30:10;;;;;;;7.92;4.80;;;;;;;18.65;70.27;101108.75;1753811;82;21512;-59
2022/07/18 00:32:39;;;;;;;15.72;11.30;;;;;;;18.67;70.29;101105.50;1753935;81;21192;-59
2022/07/18 00:35:08;;;;;;;33.35;20.55;;;;;;;18.69;70.32;101102.73;1753827;82;21055;-58
2022/07/18 00:37:37;;;;;;;35.40;22.55;;;;;;;18.71;70.54;101107.48;1753977;82;21076;-58
2022/07/18 00:40:07;;;;;;;33.88;21.48;;;;;;;18.75;70.68;101108.98;1753876;82;21591;-59
2022/07/18 00:42:36;;;;;;;32.70;20.27;;;;;;;18.73;71.07;101104.23;1753867;82;21073;-59
2022/07/18 00:45:05;;;;;;;32.90;21.73;;;;;;;18.77;71.16;101111.06;1753883;82;21139;-58
2022/07/18 00:47:34;;;;;;;30.62;18.98;;;;;;;18.79;71.10;101115.81;1754011;82;21104;-58
2022/07/18 00:50:05;;;;;;;30.70;17.85;;;;;;;18.80;71.61;101116.69;1753892;82;21073;-58
2022/07/18 00:52:33;;;;;;;24.80;16.37;;;;;;;18.80;71.72;101120.69;1753945;82;21069;-59
2022/07/18 00:55:01;;;;;;;26.33;16.25;;;;;;;18.80;72.05;101124.20;1753940;82;21069;-59
2022/07/18 00:57:30;;;;;;;23.92;14.13;;;;;;;18.79;72.17;101126.48;1754082;81;21644;-59
2022/07/18 01:02:45;;;;;;;21.25;12.40;;;;;;;18.76;72.75;101130.70;1753940;82;21199;-59
2022/07/18 01:05:14;;;;;;;17.23;10.40;;;;;;;18.74;73.02;101139.30;1754105;82;21145;-59
2022/07/18 01:07:42;;;;;;;13.93;6.90;;;;;;;18.74;73.00;101131.30;1753902;82;21041;-59
2022/07/18 01:10:11;;;;;;;11.33;7.75;;;;;;;18.76;73.30;101138.71;1753991;82;21155;-59
2022/07/18 01:12:40;;;;;;;12.50;6.72;;;;;;;18.81;73.37;101137.09;1754090;82;21143;-58
2022/07/18 01:15:09;;;;;;;10.08;6.53;;;;;;;18.82;73.42;101134.32;1753993;82;21053;-59
2022/07/18 01:17:38;;;;;;;11.88;7.05;;;;;;;18.88;73.54;101140.56;1754056;82;21196;-59
2022/07/18 01:20:08;;;;;;;9.90;5.65;;;;;;;18.92;73.74;101140.37;1753894;82;21081;-58
2022/07/18 01:22:38;;;;;;;9.68;6.25;;;;;;;18.97;73.85;101142.25;1754059;82;21105;-59
2022/07/18 01:25:07;;;;;;;10.82;6.35;;;;;;;19.03;74.13;101140.48;1754076;82;21180;-59
2022/07/18 01:27:36;;;;;;;8.28;6.03;;;;;;;19.06;73.99;101141.63;1754051;81;21101;-59
2022/07/18 01:30:06;;;;;;;11.25;6.72;;;;;;;19.10;74.38;101147.96;1753974;82;21183;-59
2022/07/18 01:32:35;;;;;;;10.55;6.05;;;;;;;19.15;74.61;101149.48;1753774;81;21128;-59
2022/07/18 01:35:05;;;;;;;10.28;6.22;;;;;;;19.21;75.39;101143.72;1747984;82;21077;-59
2022/07/18 01:37:34;;;;;;;12.00;6.37;;;;;;;19.27;75.43;101146.83;1747906;82;21344;-59
2022/07/18 01:40:11;;;;;;;13.43;6.80;;;;;;;19.38;75.89;101151.89;1747875;82;21057;-58
2022/07/18 01:42:39;;;;;;;11.45;5.92;;;;;;;19.43;76.08;101153.77;1747962;82;21049;-59
2022/07/18 01:45:08;;;;;;;11.75;6.83;;;;;;;19.50;76.27;101155.53;1747761;82;21065;-60
2022/07/18 01:47:37;;;;;;;11.70;7.08;;;;;;;19.55;76.57;101154.25;1747944;82;21108;-59
2022/07/18 01:50:08;;;;;;;10.75;5.80;;;;;;;19.61;77.09;101155.14;1747841;82;21144;-59
2022/07/18 01:52:36;;;;;;;13.90;6.05;;;;;;;19.66;77.37;101158.34;1747933;82;21049;-59
2022/07/18 01:55:07;;;;;;;7.37;5.70;;;;;;;19.67;77.14;101163.20;1747872;82;21113;-59
2022/07/18 01:57:36;;;;;;;9.20;5.28;;;;;;;19.70;77.19;101165.66;1747780;82;21077;-59
2022/07/18 02:00:10;;;;;;;11.53;6.80;;;;;;;19.71;77.17;101163.34;1747824;82;21225;-59
2022/07/18 02:02:40;;;;;;;10.28;6.25;;;;;;;19.73;77.37;101161.94;1747897;82;21134;-59
2022/07/18 02:05:09;;;;;;;10.15;6.42;;;;;;;19.72;77.46;101169.56;1747827;82;21078;-58
2022/07/18 02:07:42;;;;;;;13.15;5.97;;;;;;;19.72;77.79;101175.75;1747836;82;21105;-58
2022/07/18 02:10:14;;;;;;;8.95;5.75;;;;;;;19.73;78.06;101172.63;1747891;82;21092;-59
2022/07/18 02:12:43;;;;;;;7.85;5.00;;;;;;;19.74;78.15;101174.34;1747754;81;21085;-59
2022/07/18 02:15:13;;;;;;;9.03;5.42;;;;;;;19.76;78.24;101177.77;1747943;82;21080;-58
2022/07/18 02:17:43;;;;;;;9.30;6.15;;;;;;;19.78;78.53;101175.83;1747806;82;21073;-58
2022/07/18 02:20:14;;;;;;;10.60;5.75;;;;;;;19.81;78.99;101179.63;1747934;82;21061;-59
2022/07/18 02:22:44;;;;;;;10.98;6.15;;;;;;;19.82;79.89;101186.18;1748002;82;21069;-59
2022/07/18 02:25:13;;;;;;;9.28;5.30;;;;;;;19.83;79.98;101194.58;1747868;82;21089;-59
2022/07/18 02:27:42;;;;;;;10.30;5.50;;;;;;;19.85;80.06;101194.48;1747859;81;21595;-59
2022/07/18 02:30:13;;;;;;;14.30;6.55;;;;;;;19.84;79.98;101200.77;1747944;82;21069;-59
2022/07/18 02:32:42;;;;;;;18.52;10.48;;;;;;;19.83;80.23;101201.75;1747957;82;21152;-59
2022/07/18 02:35:11;;;;;;;10.35;6.20;;;;;;;19.83;80.72;101199.92;1752389;81;21225;-59
2022/07/18 02:37:41;;;;;;;11.80;5.45;;;;;;;19.83;80.63;101212.44;1753910;82;21061;-59
2022/07/18 02:40:11;;;;;;;8.35;5.33;;;;;;;19.84;80.53;101214.13;1754060;82;21089;-58
2022/07/18 02:42:41;;;;;;;9.20;6.00;;;;;;;19.85;80.56;101216.70;1754035;82;21061;-58
2022/07/18 02:45:10;;;;;;;8.68;5.78;;;;;;;19.87;80.46;101211.25;1754029;82;21148;-58
2022/07/18 02:47:39;;;;;;;10.88;5.87;;;;;;;19.89;80.69;101224.02;1753990;82;21082;-59
2022/07/18 02:50:09;;;;;;;9.88;5.72;;;;;;;19.96;80.63;101223.12;1753924;82;21145;-59
2022/07/18 02:52:39;;;;;;;9.68;4.85;;;;;;;20.08;80.82;101218.70;1753994;82;21073;-59
2022/07/18 02:55:09;;;;;;;8.20;4.62;;;;;;;20.21;81.06;101222.20;1754064;82;21511;-58
2022/07/18 02:57:37;;;;;;;7.10;4.67;;;;;;;20.33;80.95;101228.50;1754026;82;21188;-59
2022/07/18 03:00:09;;;;;;;12.28;4.10;;;;;;;20.46;80.85;101233.81;1753940;81;21112;-59
2022/07/18 03:02:38;;;;;;;9.50;4.47;;;;;;;20.59;80.87;101234.13;1753914;82;21597;-59
2022/07/18 03:05:08;;;;;;;6.70;4.40;;;;;;;20.72;80.82;101224.73;1753922;82;21507;-59
2022/07/18 03:07:37;;;;;;;9.90;4.72;;;;;;;20.79;80.47;101234.02;1753968;82;21144;-59
2022/07/18 03:10:07;;;;;;;7.50;4.62;;;;;;;20.83;80.05;101232.81;1753936;82;21135;-59
2022/07/18 03:12:35;;;;;;;9.43;4.28;;;;;;;21.01;79.89;101227.07;1753925;82;21097;-59
2022/07/18 03:15:05;;;;;;;7.80;3.47;;;;;;;21.10;79.77;101227.72;1753985;82;21605;-58
2022/07/18 03:17:33;;;;;;;14.50;3.77;;;;;;;21.23;79.67;101234.80;1754001;82;21187;-59
2022/07/18 03:20:02;;;;;;;12.80;4.22;;;;;;;21.26;79.47;101241.27;1753942;82;21144;-58
2022/07/18 03:22:33;;;;;;;19.07;7.05;;;;;;;21.39;79.34;101241.56;1753974;82;21132;-58
2022/07/18 03:25:01;;;;;;;5.62;3.17;;;;;;;21.63;79.62;101242.48;1753898;82;21532;-58
2022/07/18 03:27:29;;;;;;;4.90;3.10;;;;;;;21.87;79.70;101244.56;1753810;82;21144;-59
2022/07/18 03:29:58;;;;;;;4.67;3.02;;;;;;;22.07;79.59;101242.14;1753986;82;21054;-59
2022/07/18 03:32:26;;;;;;;9.35;4.95;;;;;;;22.27;79.26;101249.47;1753992;82;21223;-58
2022/07/18 03:34:55;;;;;;;7.85;2.83;;;;;;;22.47;79.00;101252.39;1753929;81;21108;-58
2022/07/18 03:37:24;;;;;;;10.45;2.90;;;;;;;22.66;78.66;101249.89;1753810;82;21508;-58
2022/07/18 03:39:52;;;;;;;11.40;3.12;;;;;;;22.81;78.40;101254.98;1753913;82;21202;-59
2022/07/18 03:42:21;;;;;;;7.97;3.02;;;;;;;22.98;78.05;101259.81;1753913;82;21042;-59
2022/07/18 03:44:50;;;;;;;5.87;2.75;;;;;;;23.16;77.76;101260.61;1753923;82;21104;-59
2022/07/18 03:47:19;;;;;;;8.50;3.08;;;;;;;23.27;76.97;101259.21;1753897;82;21522;-58
2022/07/18 03:49:48;;;;;;;6.12;2.83;;;;;;;23.41;76.51;101256.21;1753949;82;21139;-60
2022/07/18 03:52:16;;;;;;;7.95;2.52;;;;;;;23.55;75.83;101263.08;1753992;82;21161;-59
2022/07/18 03:54:45;;;;;;;5.92;2.40;;;;;;;23.65;75.21;101267.19;1753920;82;21170;-58
2022/07/18 03:57:13;;;;;;;6.72;2.58;;;;;;;23.75;74.60;101264.05;1753884;81;21500;-58
2022/07/18 03:59:42;;;;;;;7.37;2.52;;;;;;;23.88;73.89;101263.87;1753917;82;21065;-58
2022/07/18 04:02:10;;;;;;;5.58;2.65;;;;;;;24.01;73.25;101267.68;1753929;82;21074;-58
2022/07/18 04:04:39;;;;;;;10.15;3.20;;;;;;;24.14;72.50;101271.48;1753961;82;21053;-58
2022/07/18 04:07:07;;;;;;;6.15;2.72;;;;;;;24.28;71.81;101271.97;1753811;82;21073;-58
2022/07/18 04:09:36;;;;;;;5.42;2.50;;;;;;;24.40;71.09;101274.55;1753891;82;21564;-58
2022/07/18 04:12:05;;;;;;;4.50;2.58;;;;;;;24.52;70.46;101265.42;1753898;82;21041;-59
2022/07/18 04:14:34;;;;;;;7.10;2.72;;;;;;;24.69;69.68;101269.77;1753918;82;21073;-58
2022/07/18 04:17:02;;;;;;;7.97;3.40;;;;;;;24.85;68.80;101275.47;1753919;82;21555;-59
2022/07/18 04:19:34;;;;;;;5.85;2.40;;;;;;;25.02;68.04;101277.95;1753137;82;21100;-59
2022/07/18 04:22:02;;;;;;;6.05;2.50;;;;;;;25.27;67.18;101280.63;1753893;82;21556;-59
2022/07/18 04:24:31;;;;;;;6.45;2.67;;;;;;;25.51;66.44;101283.34;1753950;82;21049;-59
2022/07/18 04:26:59;;;;;;;5.00;1.98;;;;;;;25.78;65.71;101287.50;1753891;82;21069;-58
2022/07/18 04:29:31;;;;;;;6.25;2.37;;;;;;;26.05;65.05;101279.64;1754012;82;21029;-59
2022/07/18 04:31:59;;;;;;;8.08;2.50;;;;;;;26.29;64.49;101287.20;1753885;82;21077;-59
2022/07/18 04:34:28;;;;;;;5.45;2.65;;;;;;;26.42;63.76;101282.30;1753902;82;21079;-58
2022/07/18 04:36:56;;;;;;;5.00;2.60;;;;;;;26.68;63.29;101288.36;1753899;81;21124;-58
2022/07/18 04:39:25;;;;;;;4.05;2.50;;;;;;;26.92;62.56;101285.06;1753885;82;21050;-58
2022/07/18 04:41:55;;;;;;;7.40;2.45;;;;;;;27.17;61.91;101291.56;1753903;82;21575;-58
2022/07/18 04:44:23;;;;;;;7.05;2.70;;;;;;;27.42;61.40;101286.38;1753834;82;21049;-58
2022/07/18 04:46:52;;;;;;;6.53;2.87;;;;;;;27.61;61.01;101292.97;1753986;82;21136;-58
2022/07/18 04:49:21;;;;;;;5.42;2.52;;;;;;;27.68;59.69;101298.06;1753890;82;21560;-58
2022/07/18 04:51:49;;;;;;;4.60;2.20;;;;;;;27.81;59.45;101299.51;1753943;82;21065;-58
2022/07/18 04:54:18;;;;;;;4.92;2.33;;;;;;;27.92;58.67;101300.63;1753908;82;21065;-58
2022/07/18 04:56:46;;;;;;;3.40;2.67;;;;;;;28.08;58.42;101302.06;1753992;82;21096;-58
2022/07/18 04:59:15;;;;;;;3.87;2.50;;;;;;;28.20;57.60;101298.59;1753949;82;21188;-58
2022/07/18 05:01:43;;;;;;;7.53;2.22;;;;;;;28.31;57.20;101306.91;1753914;82;21524;-58
2022/07/18 05:04:12;;;;;;;4.53;2.12;;;;;;;28.51;56.89;101307.50;1753886;82;21076;-58
2022/07/18 05:06:41;;;;;;;6.50;2.17;;;;;;;28.70;56.46;101301.01;1753985;82;21069;-58
2022/07/18 05:09:09;;;;;;;8.73;2.42;;;;;;;28.88;56.06;101305.80;1753980;82;21092;-58
2022/07/18 05:11:38;;;;;;;4.78;2.30;;;;;;;29.08;55.85;101300.05;1753875;82;21065;-58
2022/07/18 05:14:07;;;;;;;4.90;2.30;;;;;;;29.26;55.32;101302.64;1753888;82;21053;-58
2022/07/18 05:16:36;;;;;;;5.22;2.08;;;;;;;29.21;54.94;101293.64;1753882;81;21077;-59
2022/07/18 05:19:05;;;;;;;3.90;1.98;;;;;;;29.45;54.67;101299.59;1753857;82;21081;-59
2022/07/18 05:21:33;;;;;;;5.42;2.33;;;;;;;29.67;54.43;101300.41;1753863;82;21571;-59
2022/07/18 05:24:02;;;;;;;8.63;2.52;;;;;;;29.57;54.23;101304.16;1753918;82;21073;-59
2022/07/18 05:26:32;;;;;;;4.33;2.58;;;;;;;29.45;53.77;101300.08;1753912;81;21148;-59
2022/07/18 05:29:01;;;;;;;2.87;2.05;;;;;;;29.26;53.66;101302.13;1753953;82;21140;-59
2022/07/18 05:31:29;;;;;;;5.53;2.50;;;;;;;29.13;53.49;101303.10;1753864;82;21148;-59
2022/07/18 05:33:58;;;;;;;7.83;2.10;;;;;;;28.90;53.76;101299.34;1753863;82;21515;-59
2022/07/18 05:36:27;;;;;;;5.80;2.00;;;;;;;29.10;53.62;101300.72;1753763;81;21172;-59
2022/07/18 05:38:55;;;;;;;3.55;2.25;;;;;;;29.38;52.68;101296.35;1753952;82;21113;-59
2022/07/18 05:41:24;;;;;;;6.40;2.55;;;;;;;29.82;52.35;101298.22;1753978;82;21145;-59
2022/07/18 05:43:52;;;;;;;6.05;2.70;;;;;;;30.18;51.93;101288.77;1753974;82;21570;-58
2022/07/18 05:46:21;;;;;;;13.65;2.75;;;;;;;30.36;51.54;101290.77;1754010;82;21143;-58
2022/07/18 05:48:51;;;;;;;3.10;2.20;;;;;;;30.64;51.29;101290.81;1754009;82;21131;-58
2022/07/18 05:51:21;;;;;;;6.05;2.62;;;;;;;30.98;50.90;101288.55;1753856;81;21081;-58
2022/07/18 05:53:51;;;;;;;5.35;2.22;;;;;;;31.46;50.28;101289.69;1753958;82;21078;-58
2022/07/18 05:56:19;;;;;;;6.67;2.35;;;;;;;31.93;49.41;101283.12;1753931;81;21508;-58
2022/07/18 05:58:48;;;;;;;6.10;2.45;;;;;;;31.79;48.91;101292.13;1754072;82;21165;-58
2022/07/18 06:01:19;;;;;;;2.98;2.58;;;;;;;31.20;48.94;101290.09;1753973;82;21152;-58
2022/07/18 06:03:47;;;;;;;7.35;2.52;;;;;;;30.48;48.96;101288.48;1753727;82;21077;-58
2022/07/18 06:06:18;;;;;;;6.40;2.40;;;;;;;29.90;49.18;101291.92;1754044;82;21101;-57
2022/07/18 06:08:47;;;;;;;2.72;2.22;;;;;;;29.34;49.53;101289.58;1754140;82;21094;-58
2022/07/18 06:11:16;;;;;;;8.95;2.95;;;;;;;29.11;49.85;101295.65;1753924;82;21077;-58
2022/07/18 06:13:44;;;;;;;4.72;2.20;;;;;;;28.86;50.20;101292.05;1754021;82;21139;-58
2022/07/18 06:16:13;;;;;;;5.85;2.58;;;;;;;28.64;50.54;101290.81;1753832;82;21065;-58
2022/07/18 06:18:41;;;;;;;3.83;2.47;;;;;;;29.19;50.32;101284.83;1753980;82;21151;-58
2022/07/18 06:21:10;;;;;;;4.80;2.37;;;;;;;29.71;49.32;101285.47;1753937;82;21049;-59
2022/07/18 06:23:40;;;;;;;6.92;2.70;;;;;;;29.67;49.21;101286.84;1753968;82;21104;-58
2022/07/18 06:26:09;;;;;;;5.33;2.60;;;;;;;29.82;49.21;101287.85;1753893;82;21544;-59
2022/07/18 06:28:37;;;;;;;5.95;2.62;;;;;;;29.70;49.06;101289.22;1753906;81;21069;-59
2022/07/18 06:31:06;;;;;;;4.87;2.50;;;;;;;29.81;49.04;101285.66;1753909;82;21223;-58
2022/07/18 06:33:35;;;;;;;4.08;2.47;;;;;;;29.55;49.05;101283.66;1753930;82;21167;-58
2022/07/18 06:36:05;;;;;;;5.90;2.72;;;;;;;29.25;49.18;101284.66;1754062;82;21176;-58
2022/07/18 06:38:34;;;;;;;4.97;2.77;;;;;;;29.85;49.01;101292.95;1753837;81;21108;-58
2022/07/18 06:41:03;;;;;;;5.40;3.02;;;;;;;30.47;48.56;101289.53;1753915;82;21081;-58
2022/07/18 06:43:31;;;;;;;5.03;2.62;;;;;;;30.83;48.26;101290.33;1753903;82;21061;-58
2022/07/18 06:46:00;;;;;;;4.72;2.85;;;;;;;31.17;47.82;101292.67;1753987;82;21053;-58
2022/07/18 06:48:33;;;;;;;5.60;2.80;;;;;;;31.69;47.28;101287.48;1753971;82;21068;-59
2022/07/18 06:50:59;;;;;;;6.30;3.22;;;;;;;31.57;46.88;101296.59;1753558;82;21255;-59
2022/07/18 06:53:28;;;;;;;7.28;2.85;;;;;;;31.77;46.46;101291.47;1753930;82;21084;-58
2022/07/18 06:55:57;;;;;;;7.37;2.92;;;;;;;32.08;45.92;101298.66;1753862;82;21061;-59
2022/07/18 06:58:26;;;;;;;3.17;2.00;;;;;;;32.25;45.50;101289.23;1753933;82;21109;-58
2022/07/18 07:00:55;;;;;;;17.07;2.90;;;;;;;32.76;44.40;101295.23;1754019;82;21105;-58
2022/07/18 07:03:23;;;;;;;12.37;2.40;;;;;;;32.73;44.37;101295.61;1753909;82;21074;-58
2022/07/18 07:05:52;;;;;;;8.93;2.30;;;;;;;32.69;43.76;101301.95;1753914;82;21156;-59
2022/07/18 07:08:20;;;;;;;3.62;1.87;;;;;;;32.99;43.39;101295.03;1753934;82;21069;-59
2022/07/18 07:10:49;;;;;;;16.12;3.35;;;;;;;32.61;43.25;101304.81;1753923;82;21108;-59
2022/07/18 07:13:17;;;;;;;4.72;2.30;;;;;;;32.10;43.36;101304.75;1753910;82;21152;-59
2022/07/18 07:15:46;;;;;;;22.20;2.65;;;;;;;32.44;43.25;101304.66;1754007;82;21085;-59
2022/07/18 07:18:15;;;;;;;4.28;1.92;;;;;;;32.87;42.69;101235.25;1753919;82;21061;-59
2022/07/18 07:20:43;;;;;;;3.77;1.52;;;;;;;33.85;41.99;101299.05;1753832;82;21504;-59
2022/07/18 07:23:12;;;;;;;4.85;1.92;;;;;;;33.85;41.99;101299.05;1753891;82;21203;-59
2022/07/18 07:25:41;;;;;;;4.25;2.25;;;;;;;34.40;41.20;101306.53;1753912;82;21073;-59
2022/07/18 07:28:09;;;;;;;8.08;2.45;;;;;;;34.83;40.33;101304.90;1754006;82;21212;-58
2022/07/18 07:30:38;;;;;;;4.50;1.95;;;;;;;35.26;39.56;101308.66;1753908;82;21116;-58
2022/07/18 07:33:09;;;;;;;5.92;2.37;;;;;;;35.56;39.27;101305.48;1753980;82;21065;-58
2022/07/18 07:35:37;;;;;;;4.37;2.40;;;;;;;35.72;38.82;101311.93;1753861;82;21164;-58
2022/07/18 07:38:06;;;;;;;5.72;2.12;;;;;;;35.84;38.52;101305.30;1753828;81;21532;-59
2022/07/18 07:40:35;;;;;;;5.67;2.33;;;;;;;36.06;38.00;101309.11;1753844;82;21053;-58
2022/07/18 07:43:08;;;;;;;8.90;2.92;;;;;;;35.44;38.06;101312.68;1753921;82;21072;-58
2022/07/18 07:45:38;;;;;;;8.85;2.87;;;;;;;34.48;38.33;101309.07;1753942;82;21049;-58
2022/07/18 07:48:07;;;;;;;8.83;2.20;;;;;;;34.40;38.48;101306.00;1753876;82;21140;-58
2022/07/18 07:50:36;;;;;;;7.75;2.52;;;;;;;34.81;37.55;101307.00;1753948;82;21650;-58
2022/07/18 07:53:05;;;;;;;13.75;3.52;;;;;;;35.08;36.81;101302.42;1753873;82;21136;-58
2022/07/18 07:55:34;;;;;;;6.53;1.90;;;;;;;34.78;36.94;101303.30;1753972;82;21139;-58
2022/07/18 07:58:04;;;;;;;7.17;2.27;;;;;;;34.09;37.29;101310.55;1753862;81;21072;-59
2022/07/18 08:00:32;;;;;;;6.45;2.20;;;;;;;33.53;37.71;101307.81;1753697;82;21127;-58
2022/07/18 08:03:04;;;;;;;7.72;2.83;;;;;;;32.90;38.89;101304.37;1753871;82;21567;-58
2022/07/18 08:05:37;;;;;;;5.97;2.25;;;;;;;32.90;38.89;101304.37;1753832;82;21147;-58
2022/07/18 08:08:07;;;;;;;8.68;2.27;;;;;;;32.36;39.03;101316.52;1753904;82;21076;-58
2022/07/18 08:10:35;;;;;;;3.83;1.80;;;;;;;31.98;39.18;101308.41;1753894;82;21077;-58
2022/07/18 08:13:05;;;;;;;5.58;2.02;;;;;;;32.51;39.20;101308.31;1753796;82;21077;-58
2022/07/18 08:15:35;;;;;;;2.70;1.40;;;;;;;33.06;38.49;101304.13;1753936;82;21077;-58
2022/07/18 08:18:04;;;;;;;5.08;2.10;;;;;;;33.67;37.95;101306.91;1753950;82;21136;-58
2022/07/18 08:20:34;;;;;;;3.90;1.60;;;;;;;33.63;37.75;101305.06;1753831;82;21144;-58
2022/07/18 08:23:11;;;;;;;7.83;1.92;;;;;;;33.77;37.28;101307.42;1753866;82;21160;-59
2022/07/18 08:25:42;;;;;;;12.37;1.90;;;;;;;34.06;36.89;101291.81;1753851;82;21548;-59
2022/07/18 08:28:11;;;;;;;4.80;1.85;;;;;;;34.32;36.29;101302.59;1753880;82;21120;-58
2022/07/18 08:30:40;;;;;;;7.53;1.70;;;;;;;34.58;36.06;101301.34;1753856;82;21504;-58
2022/07/18 08:33:09;;;;;;;5.80;1.67;;;;;;;34.87;35.60;101302.06;1753887;82;21080;-58
2022/07/18 08:35:38;;;;;;;3.52;1.10;;;;;;;35.20;34.74;101307.31;1754044;82;21650;-58
2022/07/18 08:38:06;;;;;;;2.85;1.20;;;;;;;35.33;33.96;101306.77;1753596;81;21171;-58
2022/07/18 08:40:36;;;;;;;8.18;1.90;;;;;;;35.26;33.80;101310.56;1747694;82;21144;-59
2022/07/18 08:43:05;;;;;;;6.58;1.45;;;;;;;35.07;33.37;101304.83;1747755;82;21066;-58
2022/07/18 08:45:34;;;;;;;4.78;1.30;;;;;;;35.25;33.36;101298.78;1747758;82;21089;-58
2022/07/18 08:48:03;;;;;;;5.53;1.00;;;;;;;35.65;33.01;101298.73;1747753;82;21502;-58
2022/07/18 08:50:32;;;;;;;4.40;1.55;;;;;;;36.16;32.68;101307.31;1747605;82;21081;-58
2022/07/18 08:53:02;;;;;;;2.27;1.02;;;;;;;36.16;32.03;101312.80;1747761;82;21126;-59
2022/07/18 08:55:30;;;;;;;2.58;1.00;;;;;;;36.18;31.80;101312.05;1747759;82;21113;-59
2022/07/18 08:57:59;;;;;;;6.17;1.32;;;;;;;36.02;32.17;101308.70;1747871;82;21495;-59
2022/07/18 09:00:29;;;;;;;2.58;1.35;;;;;;;36.01;32.39;101319.37;1747708;82;21092;-58
2022/07/18 09:03:03;;;;;;;2.55;1.27;;;;;;;36.23;32.34;101307.63;1747659;82;21152;-59
2022/07/18 09:05:33;;;;;;;14.07;1.50;;;;;;;36.32;32.05;101313.19;1747714;82;21085;-59
2022/07/18 09:08:22;;;;;;;7.37;1.17;;;;;;;36.03;31.99;101310.40;1747753;82;21602;-59
2022/07/18 09:10:57;;;;;;;2.70;1.10;;;;;;;35.19;32.32;101302.34;1740330;82;21097;-59
2022/07/18 09:13:42;;;;;;;5.75;1.20;;;;;;;34.90;32.81;101320.80;1747717;82;21073;-59
2022/07/18 09:16:13;;;;;;;1.90;1.37;;;;;;;35.09;32.67;101310.10;1747837;82;21567;-59
2022/07/18 09:18:45;;;;;;;5.67;1.20;;;;;;;35.08;32.59;101316.61;1748081;82;21504;-59
2022/07/18 09:21:20;;;;;;;2.02;1.07;;;;;;;34.83;32.41;101313.11;1747923;82;21469;-59
2022/07/18 09:23:51;;;;;;;1.22;0.90;;;;;;;35.04;32.34;101318.09;1747681;81;21077;-59
2022/07/18 09:26:43;;;;;;;2.17;0.90;;;;;;;35.11;31.75;101314.30;1748215;82;21081;-59
2022/07/18 09:29:18;;;;;;;3.42;1.15;;;;;;;35.29;31.55;101319.20;1747923;82;21112;-59
2022/07/18 09:31:51;;;;;;;5.03;1.10;;;;;;;35.41;30.91;101317.20;1747919;82;21589;-59
2022/07/18 09:34:37;;;;;;;5.08;1.37;;;;;;;35.49;30.96;101323.84;1747757;82;21602;-59
2022/07/18 09:37:07;;;;;;;5.83;0.85;;;;;;;35.59;30.85;101318.77;1747887;82;21597;-59
2022/07/18 09:39:36;;;;;;;5.85;1.05;;;;;;;35.66;30.42;101317.41;1749493;82;21579;-59
2022/07/18 09:42:15;;;;;;;4.15;1.00;;;;;;;35.58;29.82;101319.84;1753861;82;21143;-60
2022/07/18 09:44:45;;;;;;;3.40;0.90;;;;;;;35.57;29.60;101316.23;1753819;82;21120;-60
2022/07/18 09:47:14;;;;;;;8.80;0.95;;;;;;;35.68;29.18;101309.28;1751721;81;21065;-60
2022/07/18 09:49:42;;;;;;;7.30;1.02;;;;;;;35.45;28.79;101315.21;1753927;82;21495;-59
2022/07/18 09:52:11;;;;;;;4.35;1.05;;;;;;;35.11;28.88;101317.58;1753898;82;21073;-60
2022/07/18 09:54:42;;;;;;;3.12;1.00;;;;;;;34.92;29.01;101315.13;1753902;82;21085;-59
2022/07/18 09:57:13;;;;;;;3.37;0.90;;;;;;;34.81;28.87;101316.58;1753858;82;21073;-59
2022/07/18 09:59:42;;;;;;;5.80;1.15;;;;;;;34.59;29.08;101309.84;1752054;82;21104;-59
2022/07/18 10:02:11;;;;;;;2.25;0.88;;;;;;;34.68;28.99;101309.68;1753917;82;21041;-59
2022/07/18 10:04:40;;;;;;;4.97;1.10;;;;;;;34.74;29.04;101313.81;1753915;82;21503;-59
2022/07/18 10:07:10;;;;;;;6.22;1.10;;;;;;;34.67;29.59;101316.18;1753930;81;21143;-59
2022/07/18 10:09:40;;;;;;;4.47;1.10;;;;;;;34.51;29.57;101318.24;1754030;81;21093;-59
2022/07/18 10:12:09;;;;;;;7.85;3.25;;;;;;;34.51;29.57;101318.24;1753910;82;21564;-59
2022/07/18 10:14:39;;;;;;;4.05;1.92;;;;;;;34.55;29.57;101322.25;1753907;82;21147;-59
2022/07/18 10:17:08;;;;;;;2.20;1.05;;;;;;;34.50;29.71;101320.64;1754050;82;21561;-59
2022/07/18 10:19:37;;;;;;;3.08;1.20;;;;;;;34.53;30.02;101314.77;1753920;82;21077;-59
2022/07/18 10:22:07;;;;;;;10.75;1.05;;;;;;;34.46;30.13;101302.97;1753833;82;21146;-60
2022/07/18 10:24:41;;;;;;;3.85;0.98;;;;;;;34.24;30.56;101324.11;1753839;82;21558;-59
2022/07/18 10:27:15;;;;;;;2.90;1.00;;;;;;;34.15;30.64;101323.92;1753918;82;21144;-59
2022/07/18 10:30:12;;;;;;;2.00;1.10;;;;;;;34.11;30.75;101319.91;1753888;82;21520;-59
2022/07/18 10:32:41;;;;;;;7.08;1.30;;;;;;;34.00;30.75;101313.12;1753890;82;21160;-59
2022/07/18 10:35:13;;;;;;;9.93;1.95;;;;;;;33.95;30.82;101319.70;1753921;82;21081;-59
2022/07/18 10:37:41;;;;;;;;;;;;;;;33.74;31.09;101316.00;1756614;82;21136;-59
2022/07/18 10:40:28;;;;;;;5.58;0.95;;;;;;;33.61;32.03;101317.24;1753848;81;20431;-59
2022/07/18 10:43:32;;;;;;;21.57;2.22;;;;;;;33.61;32.03;101317.24;1749547;82;21160;-60
2022/07/18 10:46:02;;;;;;;5.83;1.00;;;;;;;33.56;31.53;101318.35;1753971;82;21152;-58
2022/07/18 10:48:40;;;;;;;1.98;1.00;;;;;;;33.42;31.72;101319.62;1754017;82;21098;-58
2022/07/18 10:51:10;;;;;;;3.42;1.10;;;;;;;33.34;31.74;101320.27;1753910;82;21570;-58
2022/07/18 10:53:58;;;;;;;2.60;1.02;;;;;;;33.36;31.75;101316.81;1753859;82;21140;-59
2022/07/18 10:56:38;;;;;;;3.52;0.98;;;;;;;33.22;31.88;101314.50;1753947;82;21073;-58
2022/07/18 10:59:22;;;;;;;1.20;1.10;;;;;;;32.92;31.98;101321.92;1753913;82;21143;-58
2022/07/18 11:01:53;;;;;;;7.85;1.35;;;;;;;32.61;32.27;101317.08;1753782;82;21085;-58
2022/07/18 11:04:31;;;;;;;2.30;1.33;;;;;;;32.38;32.81;101321.78;1754161;81;21037;-58
2022/07/18 11:07:08;;;;;;;3.62;0.95;;;;;;;32.13;33.05;101316.64;1753990;82;21069;-57
2022/07/18 11:09:42;;;;;;;8.80;1.75;;;;;;;31.93;33.44;101317.16;1753904;82;21065;-57
2022/07/18 11:12:25;;;;;;;2.00;1.30;;;;;;;31.66;33.45;101324.59;1753795;81;21077;-58
2022/07/18 11:15:07;;;;;;;5.90;1.10;;;;;;;31.21;34.04;101319.48;1753915;82;21163;-58
2022/07/18 11:17:58;;;;;;;2.25;1.35;;;;;;;31.05;34.37;101318.59;1753902;82;21143;-57
2022/07/18 11:20:38;;;;;;;4.80;1.20;;;;;;;31.03;34.57;101322.01;1753823;82;21143;-59
2022/07/18 11:23:27;;;;;;;5.65;1.37;;;;;;;30.93;34.88;101318.66;1753976;82;21179;-58
2022/07/18 11:25:58;;;;;;;50.73;2.87;;;;;;;30.91;34.94;101309.84;1753873;82;21166;-60
2022/07/18 11:28:28;;;;;;;2.08;1.10;;;;;;;30.83;35.07;101315.31;1753991;82;21147;-60
2022/07/18 11:31:11;;;;;;;2.35;1.00;;;;;;;30.69;35.32;101308.76;1753894;82;21187;-60
2022/07/18 11:33:42;;;;;;;4.60;0.90;;;;;;;30.57;35.58;101314.59;1754188;82;21106;-58
2022/07/18 11:36:13;;;;;;;2.85;1.00;;;;;;;30.51;35.65;101311.77;1753425;82;21073;-57
2022/07/18 11:38:53;;;;;;;3.12;1.05;;;;;;;30.46;35.92;101317.72;1753895;81;21085;-58
2022/07/18 11:41:24;;;;;;;4.80;1.60;;;;;;;30.42;36.22;101312.83;1753794;81;21242;-58